Time;durP1;ratioP1;P1;durP2;ratioP2;P2;SDS_P1;SDS_P2;PMS_P1;PMS_P2;Temp;Humidity;BMP_temperature;BMP_pressure;BME280_temperature;BME280_humidity;BME280_pressure;Samples;Min_cycle;Max_cycle;Signal;HPM_P1;HPM_P2
2023/09/28 00:01:35;;;;;;;21.40;17.00;;;;;;;;;;5054688;28;20999;-79
2023/09/28 00:04:02;;;;;;;16.97;15.27;;;;;;;;;;5067545;28;20471;-80
2023/09/28 00:06:29;;;;;;;17.70;15.37;;;;;;;;;;5074883;28;20439;-79
2023/09/28 00:08:57;;;;;;;18.20;16.20;;;;;;;;;;5076117;28;20466;-80
2023/09/28 00:11:23;;;;;;;16.03;14.33;;;;;;;;;;5076553;28;20471;-80
2023/09/28 00:13:49;;;;;;;15.93;14.23;;;;;;;;;;5076437;28;20470;-80
2023/09/28 00:16:14;;;;;;;16.47;14.77;;;;;;;;;;5073001;28;20221;-80
2023/09/28 00:18:41;;;;;;;18.33;15.40;;;;;;;;;;5072951;28;20532;-79
2023/09/28 00:21:08;;;;;;;17.20;14.40;;;;;;;;;;5074613;28;20725;-80
2023/09/28 00:23:36;;;;;;;16.03;14.40;;;;;;;;;;5068715;28;20468;-85
2023/09/28 00:26:04;;;;;;;16.33;14.63;;;;;;;;;;5057655;28;20804;-82
2023/09/28 00:28:30;;;;;;;16.97;14.00;;;;;;;;;;5061081;28;20470;-82
2023/09/28 00:30:56;;;;;;;16.40;14.67;;;;;;;;;;5076025;28;20473;-81
2023/09/28 00:33:23;;;;;;;15.70;14.03;;;;;;;;;;5073443;28;20597;-81
2023/09/28 00:35:49;;;;;;;18.37;14.37;;;;;;;;;;5074242;28;20868;-81
2023/09/28 00:38:15;;;;;;;17.07;13.30;;;;;;;;;;5074078;28;20473;-81
2023/09/28 00:40:41;;;;;;;14.47;13.00;;;;;;;;;;5073717;28;20483;-81
2023/09/28 00:43:08;;;;;;;14.43;12.93;;;;;;;;;;5073443;28;20467;-80
2023/09/28 00:45:38;;;;;;;15.50;13.50;;;;;;;;;;5073989;28;20447;-81
2023/09/28 00:48:05;;;;;;;16.70;14.47;;;;;;;;;;5072845;28;20458;-81
2023/09/28 00:50:32;;;;;;;14.80;13.30;;;;;;;;;;5074351;28;20450;-81
2023/09/28 00:52:58;;;;;;;14.50;13.00;;;;;;;;;;5073428;28;20519;-80
2023/09/28 00:55:26;;;;;;;20.73;12.80;;;;;;;;;;5074275;28;20443;-79
2023/09/28 00:57:53;;;;;;;13.87;12.30;;;;;;;;;;5072493;28;20459;-81
2023/09/28 01:00:24;;;;;;;15.20;13.60;;;;;;;;;;5074061;28;20561;-81
2023/09/28 01:02:50;;;;;;;16.20;13.77;;;;;;;;;;5077900;28;20552;-80
2023/09/28 01:05:17;;;;;;;17.30;13.63;;;;;;;;;;5077793;28;20470;-79
2023/09/28 01:07:42;;;;;;;14.93;13.40;;;;;;;;;;5077580;28;20435;-79
2023/09/28 01:10:12;;;;;;;16.63;13.40;;;;;;;;;;5077648;28;20447;-79
2023/09/28 01:12:38;;;;;;;18.23;14.50;;;;;;;;;;5079421;28;20217;-81
2023/09/28 01:15:06;;;;;;;14.27;12.83;;;;;;;;;;5078087;28;20462;-79
2023/09/28 01:17:33;;;;;;;15.27;13.77;;;;;;;;;;5077214;28;20450;-82
2023/09/28 01:20:00;;;;;;;15.20;13.80;;;;;;;;;;5066627;28;20503;-79
2023/09/28 01:22:26;;;;;;;16.30;14.60;;;;;;;;;;5057552;28;20467;-81
2023/09/28 01:24:53;;;;;;;16.50;14.00;;;;;;;;;;5056820;28;20479;-81
2023/09/28 01:27:19;;;;;;;15.83;14.30;;;;;;;;;;5057376;28;20459;-81
2023/09/28 01:29:46;;;;;;;18.03;13.83;;;;;;;;;;5055957;28;20515;-81
2023/09/28 01:32:11;;;;;;;15.60;13.90;;;;;;;;;;5044043;28;20221;-81
2023/09/28 01:34:37;;;;;;;15.97;14.20;;;;;;;;;;5055111;28;20493;-82
2023/09/28 01:37:03;;;;;;;16.20;14.47;;;;;;;;;;5057130;28;20557;-81
2023/09/28 01:39:31;;;;;;;18.67;14.77;;;;;;;;;;5056701;28;20463;-81
2023/09/28 01:41:56;;;;;;;18.20;13.63;;;;;;;;;;5057061;28;20317;-81
2023/09/28 01:44:24;;;;;;;15.80;14.20;;;;;;;;;;5056612;28;20495;-81
2023/09/28 01:46:49;;;;;;;16.93;14.50;;;;;;;;;;5056486;28;20205;-81
2023/09/28 01:49:16;;;;;;;17.23;15.43;;;;;;;;;;5058379;28;20839;-81
2023/09/28 01:51:41;;;;;;;18.03;15.07;;;;;;;;;;5056769;28;20675;-81
2023/09/28 01:54:07;;;;;;;16.17;14.63;;;;;;;;;;5056066;28;20475;-81
2023/09/28 01:56:34;;;;;;;14.80;13.20;;;;;;;;;;5058992;28;20221;-82
2023/09/28 01:59:00;;;;;;;15.37;13.73;;;;;;;;;;5056342;28;20498;-82
2023/09/28 02:01:27;;;;;;;17.00;14.53;;;;;;;;;;5055619;28;20450;-81
2023/09/28 02:03:53;;;;;;;15.03;13.10;;;;;;;;;;5055074;28;20925;-81
2023/09/28 02:06:18;;;;;;;13.70;12.40;;;;;;;;;;5057046;28;20414;-81
2023/09/28 02:08:45;;;;;;;19.00;15.10;;;;;;;;;;5055079;28;20836;-81
2023/09/28 02:11:10;;;;;;;12.90;11.70;;;;;;;;;;5056677;28;20247;-81
2023/09/28 02:13:40;;;;;;;13.70;12.10;;;;;;;;;;5053868;28;20831;-81
2023/09/28 02:16:08;;;;;;;14.80;13.00;;;;;;;;;;5056903;28;20204;-81
2023/09/28 02:18:35;;;;;;;13.47;12.07;;;;;;;;;;5055803;28;20468;-82
2023/09/28 02:21:00;;;;;;;12.70;11.20;;;;;;;;;;5055004;28;20902;-81
2023/09/28 02:23:26;;;;;;;13.27;11.93;;;;;;;;;;5056093;28;20468;-81
2023/09/28 02:25:52;;;;;;;12.77;10.33;;;;;;;;;;5055575;28;20205;-81
2023/09/28 02:28:18;;;;;;;15.80;12.37;;;;;;;;;;5044205;28;20471;-81
2023/09/28 02:30:45;;;;;;;12.87;11.30;;;;;;;;;;5058427;28;20582;-81
2023/09/28 02:33:12;;;;;;;11.30;10.20;;;;;;;;;;5057114;28;20981;-82
2023/09/28 02:35:37;;;;;;;12.73;11.43;;;;;;;;;;5055950;28;20554;-81
2023/09/28 02:38:04;;;;;;;10.70;9.27;;;;;;;;;;5057705;28;20495;-81
2023/09/28 02:40:29;;;;;;;12.43;11.23;;;;;;;;;;5057740;28;20225;-81
2023/09/28 02:42:57;;;;;;;11.77;10.57;;;;;;;;;;5055217;28;20463;-82
2023/09/28 02:45:23;;;;;;;13.30;11.90;;;;;;;;;;5056228;28;20251;-83
2023/09/28 02:47:50;;;;;;;15.40;11.10;;;;;;;;;;5055397;28;20440;-81
2023/09/28 02:50:18;;;;;;;11.73;10.63;;;;;;;;;;5055985;28;20212;-82
2023/09/28 02:52:46;;;;;;;11.77;10.67;;;;;;;;;;5056235;28;20529;-82
2023/09/28 02:55:12;;;;;;;12.50;11.30;;;;;;;;;;5055303;28;20463;-79
2023/09/28 02:57:39;;;;;;;11.60;10.50;;;;;;;;;;5053946;28;20443;-82
2023/09/28 03:00:24;;;;;;;13.00;11.70;;;;;;;;;;5053932;28;20512;-81
2023/09/28 03:02:52;;;;;;;11.27;10.07;;;;;;;;;;5053201;28;20848;-81
2023/09/28 03:05:19;;;;;;;9.90;8.90;;;;;;;;;;5035468;28;20436;-81
2023/09/28 03:07:45;;;;;;;12.40;11.10;;;;;;;;;;5034160;28;20475;-81
2023/09/28 03:10:12;;;;;;;12.63;11.33;;;;;;;;;;5035717;28;20448;-81
2023/09/28 03:12:38;;;;;;;11.77;10.57;;;;;;;;;;5034673;28;20433;-83
2023/09/28 03:15:10;;;;;;;12.67;11.33;;;;;;;;;;5035674;28;20824;-81
2023/09/28 03:17:36;;;;;;;14.57;11.33;;;;;;;;;;5034624;28;20854;-81
2023/09/28 03:20:04;;;;;;;12.90;11.47;;;;;;;;;;5034924;28;20477;-81
2023/09/28 03:22:30;;;;;;;14.20;12.53;;;;;;;;;;5034932;28;20229;-81
2023/09/28 03:24:56;;;;;;;25.27;13.13;;;;;;;;;;5035201;28;20472;-81
2023/09/28 03:27:22;;;;;;;11.13;10.03;;;;;;;;;;5034962;28;20725;-82
2023/09/28 03:29:49;;;;;;;12.37;11.07;;;;;;;;;;5034480;28;20465;-82
2023/09/28 03:32:16;;;;;;;11.80;10.60;;;;;;;;;;5034894;28;20238;-82
2023/09/28 03:34:42;;;;;;;10.23;9.23;;;;;;;;;;5034157;28;20838;-81
2023/09/28 03:37:10;;;;;;;12.20;10.97;;;;;;;;;;5034792;28;20446;-81
2023/09/28 03:39:36;;;;;;;11.30;10.30;;;;;;;;;;5033286;28;20847;-82
2023/09/28 03:42:04;;;;;;;11.27;10.17;;;;;;;;;;5037359;28;20858;-79
2023/09/28 03:44:32;;;;;;;12.57;11.37;;;;;;;;;;5036301;28;20824;-83
2023/09/28 03:46:58;;;;;;;14.43;11.20;;;;;;;;;;5037624;28;20514;-80
2023/09/28 03:49:24;;;;;;;11.83;10.70;;;;;;;;;;5035778;28;20480;-81
2023/09/28 03:51:51;;;;;;;12.43;10.80;;;;;;;;;;5034924;28;20460;-82
2023/09/28 03:54:19;;;;;;;13.50;11.23;;;;;;;;;;5034256;28;20903;-81
2023/09/28 03:56:46;;;;;;;13.33;11.33;;;;;;;;;;5034637;28;20448;-80
2023/09/28 03:59:13;;;;;;;12.80;11.53;;;;;;;;;;5034261;28;20461;-79
2023/09/28 04:01:44;;;;;;;12.00;10.43;;;;;;;;;;5034247;28;20978;-80
2023/09/28 04:04:11;;;;;;;11.70;10.03;;;;;;;;;;5034269;28;20538;-80
2023/09/28 04:06:38;;;;;;;12.63;10.10;;;;;;;;;;5034476;28;20419;-80
2023/09/28 04:09:07;;;;;;;11.50;10.50;;;;;;;;;;5033801;28;20540;-80
2023/09/28 04:11:35;;;;;;;13.37;10.57;;;;;;;;;;5034579;28;20870;-79
2023/09/28 04:14:02;;;;;;;11.90;9.23;;;;;;;;;;5034613;28;21015;-80
2023/09/28 04:16:28;;;;;;;10.50;9.57;;;;;;;;;;5034161;28;20456;-80
2023/09/28 04:18:54;;;;;;;10.80;9.70;;;;;;;;;;5034221;28;20998;-82
2023/09/28 04:21:21;;;;;;;14.20;10.27;;;;;;;;;;5034348;28;20485;-81
2023/09/28 04:23:47;;;;;;;10.70;9.70;;;;;;;;;;5033483;28;20967;-81
2023/09/28 04:26:14;;;;;;;11.40;10.20;;;;;;;;;;5034564;28;20423;-82
2023/09/28 04:28:42;;;;;;;13.47;10.63;;;;;;;;;;5033956;28;20546;-81
2023/09/28 04:31:08;;;;;;;16.40;10.30;;;;;;;;;;5034235;28;20958;-81
2023/09/28 04:33:34;;;;;;;13.70;10.40;;;;;;;;;;5041891;28;20824;-81
2023/09/28 04:36:01;;;;;;;11.43;10.20;;;;;;;;;;5054792;28;20444;-79
2023/09/28 04:38:28;;;;;;;10.53;9.50;;;;;;;;;;5045878;28;20468;-80
2023/09/28 04:40:54;;;;;;;11.00;9.90;;;;;;;;;;5038070;28;20938;-80
2023/09/28 04:43:20;;;;;;;10.00;9.07;;;;;;;;;;5037532;28;20476;-79
2023/09/28 04:45:48;;;;;;;10.83;9.73;;;;;;;;;;5036517;28;20515;-80
2023/09/28 04:48:15;;;;;;;10.70;9.67;;;;;;;;;;5037530;28;20465;-80
2023/09/28 04:50:42;;;;;;;13.50;11.20;;;;;;;;;;5038319;28;20527;-80
2023/09/28 04:53:09;;;;;;;11.63;10.63;;;;;;;;;;5037574;28;20469;-80
2023/09/28 04:55:35;;;;;;;10.13;9.13;;;;;;;;;;5039148;28;20443;-80
2023/09/28 04:58:01;;;;;;;11.83;10.73;;;;;;;;;;5038631;28;20448;-82
2023/09/28 05:00:28;;;;;;;11.47;10.27;;;;;;;;;;5038594;28;20484;-81
2023/09/28 05:02:56;;;;;;;11.77;10.53;;;;;;;;;;5037975;28;20472;-82
2023/09/28 05:05:23;;;;;;;14.83;11.90;;;;;;;;;;5038321;28;20457;-81
2023/09/28 05:07:49;;;;;;;11.73;10.50;;;;;;;;;;5038406;28;20432;-81
2023/09/28 05:10:16;;;;;;;11.07;10.00;;;;;;;;;;5038653;28;20459;-81
2023/09/28 05:12:43;;;;;;;12.70;11.40;;;;;;;;;;5038407;28;20436;-82
2023/09/28 05:15:10;;;;;;;10.93;9.83;;;;;;;;;;5038642;28;20463;-82
2023/09/28 05:17:37;;;;;;;11.30;10.20;;;;;;;;;;5037876;28;20467;-81
2023/09/28 05:20:06;;;;;;;12.33;11.13;;;;;;;;;;5038230;28;20455;-81
2023/09/28 05:22:32;;;;;;;12.10;9.90;;;;;;;;;;5039261;28;20480;-81
2023/09/28 05:24:58;;;;;;;11.37;10.20;;;;;;;;;;5037821;28;21064;-81
2023/09/28 05:27:25;;;;;;;16.00;11.37;;;;;;;;;;5036492;28;20441;-81
2023/09/28 05:29:51;;;;;;;10.90;9.83;;;;;;;;;;5036013;28;20986;-82
2023/09/28 05:32:18;;;;;;;12.50;9.93;;;;;;;;;;5040126;28;20439;-83
2023/09/28 05:34:45;;;;;;;10.17;9.20;;;;;;;;;;5037598;28;20499;-80
2023/09/28 05:37:13;;;;;;;12.43;10.20;;;;;;;;;;5039303;28;20451;-80
2023/09/28 05:39:40;;;;;;;14.33;11.17;;;;;;;;;;5041364;28;20475;-80
2023/09/28 05:42:07;;;;;;;13.70;10.63;;;;;;;;;;5039685;28;21032;-81
2023/09/28 05:44:35;;;;;;;15.30;10.93;;;;;;;;;;5037275;28;20965;-80
2023/09/28 05:47:01;;;;;;;13.37;10.50;;;;;;;;;;5040337;28;20536;-80
2023/09/28 05:49:29;;;;;;;12.40;11.10;;;;;;;;;;5036818;28;20990;-80
2023/09/28 05:51:57;;;;;;;11.07;9.90;;;;;;;;;;5036137;28;20535;-80
2023/09/28 05:54:26;;;;;;;15.17;12.10;;;;;;;;;;5019676;28;20505;-81
2023/09/28 05:56:52;;;;;;;16.83;12.70;;;;;;;;;;5037921;28;20485;-81
2023/09/28 05:59:19;;;;;;;12.47;11.27;;;;;;;;;;5035829;28;20522;-80
2023/09/28 06:01:46;;;;;;;13.97;12.50;;;;;;;;;;5037014;28;20856;-81
2023/09/28 06:04:13;;;;;;;15.40;12.20;;;;;;;;;;5036875;28;20559;-81
2023/09/28 06:06:39;;;;;;;14.57;11.60;;;;;;;;;;5036868;28;20981;-80
2023/09/28 06:09:07;;;;;;;13.20;11.90;;;;;;;;;;5037389;28;20469;-82
2023/09/28 06:11:35;;;;;;;13.00;10.97;;;;;;;;;;5037171;28;20441;-81
2023/09/28 06:14:02;;;;;;;14.17;12.33;;;;;;;;;;5038452;28;20476;-81
2023/09/28 06:16:28;;;;;;;15.10;11.40;;;;;;;;;;5037691;28;20437;-82
2023/09/28 06:18:55;;;;;;;15.63;11.50;;;;;;;;;;5052683;28;20504;-80
2023/09/28 06:21:22;;;;;;;12.17;10.97;;;;;;;;;;5037356;28;20447;-79
2023/09/28 06:23:49;;;;;;;15.80;12.87;;;;;;;;;;5035705;28;20480;-80
2023/09/28 06:26:16;;;;;;;12.20;10.40;;;;;;;;;;5037373;28;20445;-79
2023/09/28 06:28:44;;;;;;;12.37;11.10;;;;;;;;;;5051789;28;20450;-79
2023/09/28 06:31:11;;;;;;;18.43;12.40;;;;;;;;;;5038419;28;20965;-80
2023/09/28 06:33:37;;;;;;;15.47;13.83;;;;;;;;;;5055236;28;20471;-79
2023/09/28 06:36:04;;;;;;;13.50;11.97;;;;;;;;;;5076885;28;20451;-81
2023/09/28 06:38:31;;;;;;;16.00;13.37;;;;;;;;;;5075616;28;20462;-81
2023/09/28 06:40:57;;;;;;;14.17;12.60;;;;;;;;;;5075752;28;20443;-82
2023/09/28 06:43:23;;;;;;;14.10;12.70;;;;;;;;;;5076073;28;20467;-79
2023/09/28 06:45:51;;;;;;;18.60;12.87;;;;;;;;;;5076723;28;20951;-79
2023/09/28 06:48:18;;;;;;;19.83;14.00;;;;;;;;;;5076300;28;20481;-80
2023/09/28 06:50:45;;;;;;;19.67;13.77;;;;;;;;;;5060396;28;20451;-79
2023/09/28 06:53:13;;;;;;;15.77;13.40;;;;;;;;;;5056117;28;20467;-79
2023/09/28 06:55:42;;;;;;;14.63;13.10;;;;;;;;;;5056471;28;20944;-82
2023/09/28 06:58:09;;;;;;;14.77;13.13;;;;;;;;;;5054578;28;20478;-80
2023/09/28 07:00:36;;;;;;;16.10;13.47;;;;;;;;;;5056169;28;20503;-81
2023/09/28 07:03:05;;;;;;;15.60;13.70;;;;;;;;;;5055575;28;20529;-82
2023/09/28 07:05:33;;;;;;;16.20;12.43;;;;;;;;;;5056257;28;20502;-81
2023/09/28 07:08:00;;;;;;;13.27;11.97;;;;;;;;;;5073489;28;20879;-81
2023/09/28 07:10:29;;;;;;;15.53;12.30;;;;;;;;;;5076604;28;20585;-81
2023/09/28 07:12:55;;;;;;;15.07;13.57;;;;;;;;;;5075547;28;20438;-81
2023/09/28 07:15:22;;;;;;;14.87;13.47;;;;;;;;;;5076485;28;20435;-81
2023/09/28 07:17:48;;;;;;;14.40;12.87;;;;;;;;;;5074437;28;20463;-81
2023/09/28 07:20:16;;;;;;;13.00;11.73;;;;;;;;;;5055707;28;20435;-81
2023/09/28 07:22:42;;;;;;;16.20;13.43;;;;;;;;;;5056053;28;20490;-82
2023/09/28 07:25:10;;;;;;;14.03;12.60;;;;;;;;;;5072185;28;20513;-82
2023/09/28 07:27:36;;;;;;;15.30;12.10;;;;;;;;;;5055762;28;20802;-82
2023/09/28 07:30:05;;;;;;;14.23;12.67;;;;;;;;;;5054830;28;20509;-81
2023/09/28 07:32:32;;;;;;;14.13;12.10;;;;;;;;;;5054952;28;20501;-83
2023/09/28 07:34:58;;;;;;;14.20;12.63;;;;;;;;;;5055136;28;20471;-82
2023/09/28 07:37:28;;;;;;;17.30;12.50;;;;;;;;;;5058574;28;20467;-78
2023/09/28 07:39:54;;;;;;;12.83;11.53;;;;;;;;;;5056307;28;20468;-79
2023/09/28 07:42:23;;;;;;;20.03;13.50;;;;;;;;;;5058147;28;20484;-81
2023/09/28 07:44:51;;;;;;;16.57;13.13;;;;;;;;;;5055604;28;20472;-82
2023/09/28 07:47:18;;;;;;;16.10;13.17;;;;;;;;;;5058012;28;20460;-81
2023/09/28 07:49:45;;;;;;;14.53;13.00;;;;;;;;;;5054680;28;20476;-82
2023/09/28 07:52:12;;;;;;;15.80;12.50;;;;;;;;;;5056489;28;20450;-80
2023/09/28 07:54:39;;;;;;;14.37;11.97;;;;;;;;;;5054992;28;20510;-81
2023/09/28 07:57:07;;;;;;;14.03;12.53;;;;;;;;;;5056684;28;20451;-81
2023/09/28 07:59:33;;;;;;;17.17;12.33;;;;;;;;;;5054613;28;20539;-82
2023/09/28 08:02:00;;;;;;;15.23;12.40;;;;;;;;;;5037549;28;20539;-81
2023/09/28 08:04:26;;;;;;;14.43;11.70;;;;;;;;;;5038560;28;20530;-80
2023/09/28 08:06:53;;;;;;;18.97;11.73;;;;;;;;;;5055563;28;20460;-81
2023/09/28 08:09:23;;;;;;;11.87;10.03;;;;;;;;;;5055375;28;20832;-82
2023/09/28 08:11:50;;;;;;;10.93;9.30;;;;;;;;;;5070254;28;20956;-81
2023/09/28 08:14:17;;;;;;;9.63;8.27;;;;;;;;;;5051427;28;20477;-81
2023/09/28 08:16:44;;;;;;;10.60;8.37;;;;;;;;;;5036015;28;20441;-81
2023/09/28 08:19:10;;;;;;;13.23;9.13;;;;;;;;;;5035958;28;20468;-80
2023/09/28 08:21:38;;;;;;;13.03;8.60;;;;;;;;;;5035595;28;20460;-81
2023/09/28 08:24:07;;;;;;;17.40;8.50;;;;;;;;;;5053775;28;21062;-80
2023/09/28 08:26:33;;;;;;;11.87;7.83;;;;;;;;;;5056166;28;20548;-80
2023/09/28 08:29:01;;;;;;;11.10;7.67;;;;;;;;;;5056172;28;20864;-80
2023/09/28 08:31:28;;;;;;;8.27;7.47;;;;;;;;;;5055662;28;20809;-80
2023/09/28 08:33:54;;;;;;;8.10;6.60;;;;;;;;;;5052583;28;20525;-80
2023/09/28 08:36:22;;;;;;;14.70;6.80;;;;;;;;;;5054899;28;20820;-80
2023/09/28 08:38:51;;;;;;;11.20;7.00;;;;;;;;;;5051933;28;20525;-80
2023/09/28 08:41:21;;;;;;;12.67;7.07;;;;;;;;;;5055193;28;20436;-80
2023/09/28 08:43:50;;;;;;;7.77;6.80;;;;;;;;;;5054581;28;20475;-80
2023/09/28 08:46:19;;;;;;;18.33;7.57;;;;;;;;;;5056566;28;20452;-80
2023/09/28 08:48:46;;;;;;;13.07;7.17;;;;;;;;;;5056172;28;20475;-80
2023/09/28 08:51:12;;;;;;;9.80;6.50;;;;;;;;;;5059258;28;20455;-80
2023/09/28 08:53:39;;;;;;;10.77;5.87;;;;;;;;;;5055208;28;20475;-80
2023/09/28 08:56:07;;;;;;;9.67;6.00;;;;;;;;;;5046011;28;20441;-80
2023/09/28 08:58:34;;;;;;;8.40;6.10;;;;;;;;;;5050770;28;20476;-80
2023/09/28 09:01:00;;;;;;;11.03;7.30;;;;;;;;;;5057062;28;20440;-81
2023/09/28 09:03:28;;;;;;;9.90;5.70;;;;;;;;;;5056241;28;21068;-81
2023/09/28 09:05:57;;;;;;;9.83;5.70;;;;;;;;;;5061813;28;20452;-80
2023/09/28 09:08:26;;;;;;;17.67;6.60;;;;;;;;;;5048017;28;20481;-82
2023/09/28 09:10:53;;;;;;;11.87;6.20;;;;;;;;;;5035979;28;20471;-80
2023/09/28 09:13:20;;;;;;;16.47;5.70;;;;;;;;;;5049671;28;20469;-80
2023/09/28 09:15:47;;;;;;;10.90;5.60;;;;;;;;;;5052121;28;20437;-80
2023/09/28 09:18:16;;;;;;;11.00;5.87;;;;;;;;;;5036483;28;20468;-81
2023/09/28 09:20:46;;;;;;;12.10;5.10;;;;;;;;;;5052552;28;20460;-80
2023/09/28 09:23:12;;;;;;;13.73;6.40;;;;;;;;;;5056627;28;20989;-81
2023/09/28 09:25:41;;;;;;;11.40;5.47;;;;;;;;;;5059754;28;20446;-82
2023/09/28 09:28:09;;;;;;;13.83;4.83;;;;;;;;;;5058652;28;20468;-80
2023/09/28 09:30:36;;;;;;;14.60;5.40;;;;;;;;;;5059707;28;20436;-78
2023/09/28 09:33:06;;;;;;;13.27;5.17;;;;;;;;;;5058061;28;20463;-79
2023/09/28 09:35:33;;;;;;;16.27;6.13;;;;;;;;;;5059363;28;20446;-78
2023/09/28 09:38:01;;;;;;;15.07;5.30;;;;;;;;;;5059171;28;20463;-79
2023/09/28 09:40:27;;;;;;;12.10;5.07;;;;;;;;;;5059368;28;20438;-78
2023/09/28 09:42:54;;;;;;;19.23;6.63;;;;;;;;;;5040662;28;20491;-79
2023/09/28 09:45:20;;;;;;;16.30;5.20;;;;;;;;;;5038476;28;20456;-80
2023/09/28 09:47:47;;;;;;;17.77;4.87;;;;;;;;;;5039069;28;20471;-79
2023/09/28 09:50:15;;;;;;;25.80;5.63;;;;;;;;;;5038916;28;20456;-80
2023/09/28 09:52:43;;;;;;;16.20;5.10;;;;;;;;;;5038530;28;20978;-80
2023/09/28 09:55:12;;;;;;;14.53;4.53;;;;;;;;;;5039839;28;20527;-81
2023/09/28 09:57:38;;;;;;;23.43;6.77;;;;;;;;;;5038904;28;20477;-79
2023/09/28 10:00:08;;;;;;;13.40;4.73;;;;;;;;;;5051530;28;20460;-80
2023/09/28 10:02:39;;;;;;;14.63;5.47;;;;;;;;;;5059096;28;20805;-83
2023/09/28 10:05:08;;;;;;;18.27;5.83;;;;;;;;;;5057754;28;20460;-79
2023/09/28 10:07:37;;;;;;;15.60;5.13;;;;;;;;;;5059478;28;20451;-78
2023/09/28 10:10:04;;;;;;;17.37;4.60;;;;;;;;;;5038153;28;20473;-78
2023/09/28 10:12:33;;;;;;;11.33;4.43;;;;;;;;;;5038796;28;20444;-80
2023/09/28 10:15:00;;;;;;;14.87;5.27;;;;;;;;;;5038894;28;20872;-80
2023/09/28 10:17:27;;;;;;;16.03;5.23;;;;;;;;;;5039638;28;20470;-79
2023/09/28 10:19:56;;;;;;;21.40;7.00;;;;;;;;;;5038722;28;20472;-78
2023/09/28 10:22:24;;;;;;;22.37;6.87;;;;;;;;;;5038710;28;20447;-79
2023/09/28 10:24:50;;;;;;;15.03;5.90;;;;;;;;;;5038828;28;21016;-78
2023/09/28 10:27:17;;;;;;;14.33;4.87;;;;;;;;;;5039720;28;20441;-79
2023/09/28 10:29:45;;;;;;;21.43;6.10;;;;;;;;;;5038707;28;20473;-80
2023/09/28 10:32:27;;;;;;;12.60;4.37;;;;;;;;;;5038726;28;20445;-80
2023/09/28 10:35:09;;;;;;;17.63;5.43;;;;;;;;;;5039965;28;20500;-80
2023/09/28 10:37:37;;;;;;;12.57;5.33;;;;;;;;;;5040313;28;20460;-81
2023/09/28 10:40:03;;;;;;;17.37;5.87;;;;;;;;;;5037810;28;20473;-79
2023/09/28 10:42:30;;;;;;;21.30;6.00;;;;;;;;;;5040952;28;20463;-81
2023/09/28 10:45:00;;;;;;;14.67;5.10;;;;;;;;;;5038069;28;20481;-80
2023/09/28 10:47:27;;;;;;;17.43;5.67;;;;;;;;;;5037831;28;20539;-81
2023/09/28 10:49:59;;;;;;;17.10;6.00;;;;;;;;;;5041270;28;20473;-80
2023/09/28 10:52:26;;;;;;;11.87;4.90;;;;;;;;;;5040222;28;20497;-84
2023/09/28 10:54:52;;;;;;;15.77;5.23;;;;;;;;;;5041130;28;20519;-78
2023/09/28 10:57:21;;;;;;;20.93;5.27;;;;;;;;;;5038269;28;20437;-80
2023/09/28 10:59:48;;;;;;;21.93;5.37;;;;;;;;;;5036844;28;20628;-80
2023/09/28 11:02:19;;;;;;;23.13;5.13;;;;;;;;;;5039136;28;20441;-79
2023/09/28 11:04:45;;;;;;;17.60;5.43;;;;;;;;;;5038701;28;20488;-82
2023/09/28 11:07:12;;;;;;;17.60;5.57;;;;;;;;;;5038606;28;20437;-79
2023/09/28 11:09:41;;;;;;;19.80;5.40;;;;;;;;;;5038088;28;20499;-80
2023/09/28 11:12:10;;;;;;;24.90;5.57;;;;;;;;;;5029457;28;20465;-82
2023/09/28 11:14:41;;;;;;;12.27;5.37;;;;;;;;;;5031754;28;21006;-80
2023/09/28 11:17:10;;;;;;;13.33;4.60;;;;;;;;;;5018854;28;20445;-80
2023/09/28 11:19:38;;;;;;;19.30;5.43;;;;;;;;;;5048754;28;20467;-82
2023/09/28 11:22:05;;;;;;;17.37;5.27;;;;;;;;;;5058152;28;20468;-81
2023/09/28 11:24:32;;;;;;;17.17;5.27;;;;;;;;;;5057321;28;21082;-82
2023/09/28 11:27:00;;;;;;;13.73;4.40;;;;;;;;;;5057449;28;20440;-82
2023/09/28 11:29:26;;;;;;;21.40;5.40;;;;;;;;;;5058068;28;20472;-78
2023/09/28 11:31:53;;;;;;;18.93;5.73;;;;;;;;;;5058230;28;20451;-80
2023/09/28 11:34:32;;;;;;;14.00;5.07;;;;;;;;;;5056698;28;20472;-80
2023/09/28 11:37:03;;;;;;;10.30;4.43;;;;;;;;;;5057481;28;20498;-81
2023/09/28 11:39:29;;;;;;;10.80;4.90;;;;;;;;;;5057044;28;20468;-81
2023/09/28 11:41:56;;;;;;;11.20;5.23;;;;;;;;;;5059279;28;20539;-78
2023/09/28 11:44:22;;;;;;;14.13;5.40;;;;;;;;;;5056317;28;20474;-79
2023/09/28 11:46:52;;;;;;;12.33;5.03;;;;;;;;;;5060191;28;20826;-79
2023/09/28 11:49:23;;;;;;;12.33;5.20;;;;;;;;;;5055369;28;20826;-80
2023/09/28 11:51:52;;;;;;;10.47;5.23;;;;;;;;;;5055856;28;20436;-78
2023/09/28 11:54:20;;;;;;;12.03;4.87;;;;;;;;;;5059007;28;20480;-79
2023/09/28 11:56:47;;;;;;;12.87;5.20;;;;;;;;;;5057464;28;20439;-78
2023/09/28 11:59:15;;;;;;;12.70;4.70;;;;;;;;;;5056938;28;20476;-79
2023/09/28 12:01:41;;;;;;;13.70;5.00;;;;;;;;;;5056490;28;20470;-79
2023/09/28 12:04:09;;;;;;;12.00;4.83;;;;;;;;;;5056687;28;20476;-78
2023/09/28 12:06:37;;;;;;;15.07;5.00;;;;;;;;;;5057376;28;20453;-78
2023/09/28 12:09:05;;;;;;;11.17;5.30;;;;;;;;;;5044268;28;20468;-81
2023/09/28 12:11:33;;;;;;;13.87;5.60;;;;;;;;;;5036086;28;20472;-78
2023/09/28 12:14:00;;;;;;;20.20;6.90;;;;;;;;;;5036072;28;20476;-81
2023/09/28 12:16:27;;;;;;;14.07;5.70;;;;;;;;;;5041610;28;20465;-79
2023/09/28 12:18:53;;;;;;;9.77;5.60;;;;;;;;;;5036988;28;20476;-78
2023/09/28 12:21:20;;;;;;;9.60;5.30;;;;;;;;;;5038519;28;20997;-79
2023/09/28 12:23:47;;;;;;;11.03;5.03;;;;;;;;;;5035641;28;20842;-79
2023/09/28 12:26:13;;;;;;;10.87;4.80;;;;;;;;;;5037301;28;20445;-78
2023/09/28 12:28:41;;;;;;;13.23;5.93;;;;;;;;;;5040490;28;20467;-78
2023/09/28 12:31:09;;;;;;;12.77;5.13;;;;;;;;;;5039224;28;20476;-80
2023/09/28 12:33:35;;;;;;;10.23;5.10;;;;;;;;;;5044209;28;20480;-80
2023/09/28 12:36:02;;;;;;;7.13;4.67;;;;;;;;;;5057291;28;20888;-81
2023/09/28 12:38:28;;;;;;;9.30;5.23;;;;;;;;;;5056692;28;20471;-80
2023/09/28 12:40:55;;;;;;;6.90;4.97;;;;;;;;;;5051056;28;20465;-81
2023/09/28 12:43:21;;;;;;;9.57;4.80;;;;;;;;;;5035507;28;20499;-82
2023/09/28 12:45:50;;;;;;;11.67;5.50;;;;;;;;;;5037203;28;20444;-77
2023/09/28 12:48:18;;;;;;;8.80;4.60;;;;;;;;;;5036522;28;20461;-79
2023/09/28 12:50:45;;;;;;;8.63;4.63;;;;;;;;;;5037619;28;20447;-81
2023/09/28 12:53:11;;;;;;;15.93;5.10;;;;;;;;;;5036169;28;20510;-78
2023/09/28 12:55:38;;;;;;;15.57;4.93;;;;;;;;;;5036954;28;20467;-79
2023/09/28 12:58:05;;;;;;;10.83;5.40;;;;;;;;;;5038557;28;20460;-78
2023/09/28 13:00:33;;;;;;;12.00;6.00;;;;;;;;;;5041154;28;20444;-79
2023/09/28 13:03:02;;;;;;;10.10;4.70;;;;;;;;;;5071438;28;20493;-80
2023/09/28 13:05:29;;;;;;;12.80;5.90;;;;;;;;;;5041234;28;20508;-79
2023/09/28 13:07:57;;;;;;;15.47;4.87;;;;;;;;;;5043488;28;20456;-80
2023/09/28 13:10:25;;;;;;;12.53;4.67;;;;;;;;;;5040461;28;20451;-80
2023/09/28 13:12:53;;;;;;;19.13;5.77;;;;;;;;;;5040604;28;20447;-78
2023/09/28 13:15:22;;;;;;;14.30;5.40;;;;;;;;;;5041590;28;20472;-80
2023/09/28 13:17:49;;;;;;;13.50;5.17;;;;;;;;;;5041621;28;20500;-79
2023/09/28 13:20:26;;;;;;;13.70;5.50;;;;;;;;;;5040268;28;20943;-81
2023/09/28 13:22:54;;;;;;;17.93;4.70;;;;;;;;;;5044857;28;20454;-79
2023/09/28 13:25:21;;;;;;;16.10;5.10;;;;;;;;;;5043156;28;20494;-80
2023/09/28 13:27:47;;;;;;;13.63;5.50;;;;;;;;;;5044486;28;20464;-78
2023/09/28 13:30:15;;;;;;;18.53;6.23;;;;;;;;;;5042730;28;20456;-78
2023/09/28 13:32:41;;;;;;;13.30;5.27;;;;;;;;;;5038936;28;20519;-79
2023/09/28 13:35:10;;;;;;;9.43;4.50;;;;;;;;;;5040831;28;20971;-79
2023/09/28 13:37:39;;;;;;;17.20;5.57;;;;;;;;;;5040522;28;20468;-82
2023/09/28 13:40:15;;;;;;;14.37;5.00;;;;;;;;;;5041069;28;20457;-78
2023/09/28 13:42:42;;;;;;;12.90;5.40;;;;;;;;;;5040969;28;20463;-79
2023/09/28 13:45:10;;;;;;;10.07;5.00;;;;;;;;;;5040357;28;20484;-80
2023/09/28 13:47:36;;;;;;;14.43;4.90;;;;;;;;;;5041093;28;20472;-79
2023/09/28 13:50:10;;;;;;;11.83;5.00;;;;;;;;;;5042444;28;20461;-78
2023/09/28 13:52:38;;;;;;;10.53;5.03;;;;;;;;;;5040303;28;20437;-78
2023/09/28 13:55:06;;;;;;;17.40;4.63;;;;;;;;;;5043210;28;20475;-79
2023/09/28 13:57:33;;;;;;;11.60;5.60;;;;;;;;;;5040934;28;20440;-77
2023/09/28 14:00:01;;;;;;;14.50;5.53;;;;;;;;;;5039576;28;20477;-79
2023/09/28 14:02:27;;;;;;;12.27;4.30;;;;;;;;;;5040091;28;20460;-80
2023/09/28 14:04:54;;;;;;;10.73;4.97;;;;;;;;;;5038029;28;20523;-78
2023/09/28 14:07:20;;;;;;;13.93;4.60;;;;;;;;;;5040181;28;20441;-80
2023/09/28 14:09:50;;;;;;;12.30;5.10;;;;;;;;;;5053518;28;20526;-80
2023/09/28 14:12:16;;;;;;;16.90;4.60;;;;;;;;;;5059621;28;20440;-79
2023/09/28 14:14:43;;;;;;;13.00;4.63;;;;;;;;;;5059335;28;20502;-78
2023/09/28 14:17:10;;;;;;;18.13;6.47;;;;;;;;;;5060236;28;20921;-79
2023/09/28 14:19:36;;;;;;;15.20;5.53;;;;;;;;;;5058644;28;20468;-78
2023/09/28 14:22:03;;;;;;;20.43;5.83;;;;;;;;;;5049920;28;20503;-79
2023/09/28 14:24:31;;;;;;;14.07;4.80;;;;;;;;;;5038374;28;20472;-79